createdAt,value
2022-12-22T00:02:34.026Z,11.45
2022-12-22T00:08:05.315Z,11.48
2022-12-22T00:13:37.027Z,11.39
2022-12-22T00:19:08.803Z,11.32
2022-12-22T00:24:40.525Z,11.4
2022-12-22T00:30:13.287Z,11.24
2022-12-22T00:35:49.629Z,11.23
2022-12-22T00:41:20.250Z,11.4
2022-12-22T00:46:51.718Z,11.48
2022-12-22T00:52:23.430Z,11.4
2022-12-22T00:57:55.163Z,11.29
2022-12-22T01:03:27.316Z,11.32
2022-12-22T01:08:59.202Z,11.3
2022-12-22T01:14:31.133Z,11.34
2022-12-22T01:20:02.739Z,11.23
2022-12-22T01:25:33.781Z,11.35
2022-12-22T01:31:05.834Z,11.25
2022-12-22T01:36:43.832Z,11.34
2022-12-22T01:42:15.653Z,11.06
2022-12-22T01:47:47.322Z,10.96
2022-12-22T01:53:20.019Z,10.88
2022-12-22T01:58:50.881Z,10.82
2022-12-22T02:04:22.406Z,10.85
2022-12-22T02:09:54.124Z,10.8
2022-12-22T02:15:26.163Z,11.01
2022-12-22T02:20:57.482Z,11.04
2022-12-22T02:26:29.442Z,11.0
2022-12-22T02:32:01.216Z,10.82
2022-12-22T02:37:37.709Z,10.78
2022-12-22T02:43:09.013Z,10.77
2022-12-22T02:48:40.481Z,10.8
2022-12-22T02:54:12.432Z,11.08
2022-12-22T02:59:43.965Z,11.13
2022-12-22T03:05:15.943Z,11.08
2022-12-22T03:10:47.649Z,11.06
2022-12-22T03:16:19.181Z,11.11
2022-12-22T03:21:50.885Z,11.19
2022-12-22T03:27:22.845Z,11.12
2022-12-22T03:32:54.588Z,11.14
2022-12-22T03:38:30.650Z,11.09
2022-12-22T03:44:02.156Z,11.17
2022-12-22T03:49:33.837Z,11.21
2022-12-22T03:55:06.374Z,11.28
2022-12-22T04:00:37.318Z,11.3
2022-12-22T04:06:09.549Z,11.49
2022-12-22T04:11:40.971Z,11.43
2022-12-22T04:17:12.501Z,11.53
2022-12-22T04:22:44.367Z,11.56
2022-12-22T04:28:15.976Z,11.59
2022-12-22T04:33:48.127Z,11.57
2022-12-22T04:39:24.105Z,11.5
2022-12-22T04:44:55.746Z,11.56
2022-12-22T04:50:27.601Z,11.57
2022-12-22T04:55:58.961Z,11.5
2022-12-22T05:01:31.037Z,11.66
2022-12-22T05:07:02.538Z,11.5
2022-12-22T05:12:34.393Z,11.35
2022-12-22T05:18:05.825Z,11.36
2022-12-22T05:23:38.448Z,11.31
2022-12-22T05:29:09.585Z,11.27
2022-12-22T05:34:40.988Z,11.37
2022-12-22T05:40:19.494Z,11.49
2022-12-22T05:45:50.838Z,11.52
2022-12-22T05:51:22.544Z,11.4
2022-12-22T05:56:54.742Z,11.4
2022-12-22T06:02:26.125Z,11.36
2022-12-22T06:07:58.000Z,11.33
2022-12-22T06:13:29.436Z,11.28
2022-12-22T06:19:01.976Z,11.25
2022-12-22T06:24:32.903Z,11.35
2022-12-22T06:30:04.641Z,11.37
2022-12-22T06:35:37.157Z,11.44
2022-12-22T06:41:12.429Z,11.45
2022-12-22T06:46:44.509Z,11.51
2022-12-22T06:52:15.953Z,11.59
2022-12-22T06:57:47.700Z,11.59
2022-12-22T07:03:19.891Z,11.61
2022-12-22T07:08:51.154Z,11.56
2022-12-22T07:14:23.217Z,11.71
2022-12-22T07:19:54.591Z,11.59
2022-12-22T07:25:27.001Z,11.53
2022-12-22T07:30:58.066Z,11.53
2022-12-22T07:36:29.752Z,11.56
2022-12-22T07:42:05.989Z,11.45
2022-12-22T07:47:38.524Z,11.54
2022-12-22T07:53:09.283Z,11.66
2022-12-22T07:58:41.708Z,11.54
2022-12-22T08:04:13.206Z,11.48
2022-12-22T08:09:44.696Z,11.38
2022-12-22T08:15:16.221Z,11.45
2022-12-22T08:20:47.941Z,11.39
2022-12-22T08:26:19.666Z,11.54
2022-12-22T08:31:51.455Z,11.57
2022-12-22T08:37:23.111Z,11.66
2022-12-22T08:42:59.334Z,11.6
2022-12-22T08:48:30.904Z,11.72
2022-12-22T08:54:04.776Z,11.77
2022-12-22T08:59:34.385Z,11.74
2022-12-22T09:05:06.135Z,11.85
2022-12-22T09:10:37.827Z,11.97
2022-12-22T09:16:09.569Z,12.04
2022-12-22T09:21:41.281Z,11.82
2022-12-22T09:27:13.455Z,11.44
2022-12-22T09:32:44.737Z,11.33
2022-12-22T09:38:17.373Z,11.38
2022-12-22T09:43:54.679Z,11.23
2022-12-22T09:49:26.897Z,11.26
2022-12-22T09:54:58.053Z,11.3
2022-12-22T10:00:30.293Z,11.22
2022-12-22T10:06:01.812Z,11.25
2022-12-22T10:11:33.203Z,11.17
2022-12-22T10:17:05.026Z,11.29
2022-12-22T10:22:36.630Z,11.09
2022-12-22T10:28:08.840Z,11.15
2022-12-22T10:33:46.099Z,11.22
2022-12-22T10:39:11.825Z,11.26
2022-12-22T10:44:48.004Z,11.08
2022-12-22T10:50:19.659Z,11.05
2022-12-22T10:55:51.517Z,11.26
2022-12-22T11:01:23.202Z,11.36
2022-12-22T11:06:54.828Z,11.45
2022-12-22T11:12:26.509Z,11.6
2022-12-22T11:17:58.411Z,11.69
2022-12-22T11:23:30.113Z,12.05
2022-12-22T11:29:01.893Z,12.06
2022-12-22T11:34:33.491Z,12.14
2022-12-22T11:40:05.201Z,12.03
2022-12-22T11:45:43.730Z,12.28
2022-12-22T11:51:15.090Z,12.33
2022-12-22T11:56:47.473Z,12.45
2022-12-22T12:02:18.763Z,12.48
2022-12-22T12:07:50.537Z,12.46
2022-12-22T12:13:27.600Z,12.7
2022-12-22T12:18:53.696Z,13.14
2022-12-22T12:24:25.543Z,13.17
2022-12-22T12:30:28.375Z,13.22
2022-12-22T12:35:28.851Z,13.33
2022-12-22T12:41:00.785Z,13.22
2022-12-22T12:46:37.006Z,12.87
2022-12-22T12:52:08.588Z,12.76
2022-12-22T12:57:40.284Z,12.74
2022-12-22T13:03:24.961Z,12.94
2022-12-22T13:08:43.787Z,12.89
2022-12-22T13:14:15.440Z,12.91
2022-12-22T13:19:47.256Z,12.79
2022-12-22T13:25:18.886Z,12.87
2022-12-22T13:30:50.675Z,12.6
2022-12-22T13:36:22.130Z,12.7
2022-12-22T13:41:53.929Z,12.98
2022-12-22T13:47:30.158Z,13.12
2022-12-22T13:53:01.938Z,12.98
2022-12-22T13:58:33.454Z,12.92
2022-12-22T14:04:05.415Z,12.71
2022-12-22T14:09:36.886Z,12.65
2022-12-22T14:15:08.691Z,12.48
2022-12-22T14:20:40.533Z,12.61
2022-12-22T14:26:12.093Z,12.47
2022-12-22T14:31:43.912Z,12.47
2022-12-22T14:37:15.687Z,12.67
2022-12-22T14:42:47.262Z,12.51
2022-12-22T14:48:23.346Z,12.67
2022-12-22T14:53:55.109Z,12.54
2022-12-22T14:59:26.800Z,12.53
2022-12-22T15:04:58.590Z,12.36
2022-12-22T15:10:30.201Z,12.41
2022-12-22T15:16:02.122Z,12.44
2022-12-22T15:21:33.706Z,12.56
2022-12-22T15:27:05.556Z,12.49
2022-12-22T15:32:38.100Z,12.48
2022-12-22T15:38:08.847Z,12.47
2022-12-22T15:43:58.138Z,12.46
2022-12-22T15:49:16.690Z,12.32
2022-12-22T15:54:48.595Z,12.36
2022-12-22T16:00:21.338Z,12.26
2022-12-22T16:05:52.023Z,12.07
2022-12-22T16:11:23.578Z,12.03
2022-12-22T16:16:55.596Z,12.16
2022-12-22T16:22:26.988Z,11.88
2022-12-22T16:27:59.491Z,11.92
2022-12-22T16:33:30.875Z,11.77
2022-12-22T16:39:02.144Z,11.9
2022-12-22T16:45:04.995Z,11.78
2022-12-22T16:50:10.067Z,11.63
2022-12-22T16:55:42.315Z,11.56
2022-12-22T17:01:14.196Z,11.53
2022-12-22T17:06:45.163Z,11.61
2022-12-22T17:12:16.919Z,11.56
2022-12-22T17:17:48.618Z,11.46
2022-12-22T17:23:20.340Z,11.48
2022-12-22T17:28:52.354Z,11.49
2022-12-22T17:34:24.119Z,11.37
2022-12-22T17:39:55.873Z,11.44
2022-12-22T17:45:27.712Z,11.34
2022-12-22T17:51:03.410Z,11.44
2022-12-22T17:56:35.571Z,11.45
2022-12-22T18:02:06.846Z,11.49
2022-12-22T18:07:43.435Z,11.56
2022-12-22T18:13:10.222Z,11.64
2022-12-22T18:18:41.912Z,11.72
2022-12-22T18:24:13.944Z,11.6
2022-12-22T18:29:45.400Z,11.74
2022-12-22T18:35:17.118Z,11.86
2022-12-22T18:40:48.847Z,11.81
2022-12-22T18:46:21.643Z,11.76
2022-12-22T18:51:59.336Z,11.82
2022-12-22T18:57:30.433Z,11.82
2022-12-22T19:03:02.191Z,11.8
2022-12-22T19:08:34.556Z,11.89
2022-12-22T19:14:05.858Z,11.85
2022-12-22T19:19:37.632Z,11.95
2022-12-22T19:25:09.034Z,11.68
2022-12-22T19:30:40.975Z,11.82
2022-12-22T19:36:12.744Z,11.73
2022-12-22T19:41:45.282Z,11.62
2022-12-22T19:47:15.942Z,11.77
2022-12-22T19:52:52.045Z,11.62
2022-12-22T19:58:23.775Z,11.53
2022-12-22T20:03:55.540Z,11.58
2022-12-22T20:09:27.484Z,11.65
2022-12-22T20:14:59.222Z,11.5
2022-12-22T20:20:31.110Z,11.49
2022-12-22T20:26:02.416Z,11.38
2022-12-22T20:31:34.169Z,11.51
2022-12-22T20:37:05.848Z,11.54
2022-12-22T20:42:37.804Z,11.49
2022-12-22T20:48:09.292Z,11.44
2022-12-22T20:53:45.533Z,11.41
2022-12-22T20:59:17.422Z,11.45
2022-12-22T21:04:49.028Z,11.3
2022-12-22T21:10:20.771Z,11.37
2022-12-22T21:15:52.796Z,11.56
2022-12-22T21:21:24.311Z,11.34
2022-12-22T21:26:57.032Z,11.31
2022-12-22T21:32:27.459Z,11.2
2022-12-22T21:37:59.199Z,11.15
2022-12-22T21:43:30.939Z,11.29
2022-12-22T21:49:02.695Z,11.12
2022-12-22T21:54:39.013Z,11.14
2022-12-22T22:00:10.904Z,11.14
2022-12-22T22:05:42.343Z,10.84
2022-12-22T22:11:14.042Z,11.02
2022-12-22T22:16:46.103Z,11.21
2022-12-22T22:22:17.534Z,11.12
2022-12-22T22:27:49.468Z,11.05
2022-12-22T22:33:21.262Z,10.84
2022-12-22T22:38:52.797Z,10.77
2022-12-22T22:44:24.390Z,10.83
2022-12-22T22:49:56.123Z,11.09
2022-12-22T22:55:32.949Z,10.59
2022-12-22T23:01:04.118Z,10.67
2022-12-22T23:06:35.843Z,10.77
2022-12-22T23:12:07.487Z,10.78
2022-12-22T23:17:39.603Z,10.72
2022-12-22T23:23:10.806Z,10.68
2022-12-22T23:28:42.559Z,10.6
2022-12-22T23:34:14.286Z,10.46
2022-12-22T23:39:46.149Z,10.56
2022-12-22T23:45:17.727Z,10.41
2022-12-22T23:50:49.642Z,10.51
2022-12-22T23:56:25.767Z,10.55
